sensor_id;sensor_type;location;lat;lon;timestamp;pressure;altitude;pressure_sealevel;temperature;humidity
46574;BME280;32299;53.366;-1.544;2022-12-29T00:00:21;95904.33;;;10.89;44.23
46574;BME280;32299;53.366;-1.544;2022-12-29T00:02:48;95901.40;;;11.05;43.89
46574;BME280;32299;53.366;-1.544;2022-12-29T00:05:15;95908.87;;;11.50;43.85
46574;BME280;32299;53.366;-1.544;2022-12-29T00:07:42;95902.72;;;11.12;43.89
46574;BME280;32299;53.366;-1.544;2022-12-29T00:10:09;95905.76;;;11.14;44.24
46574;BME280;32299;53.366;-1.544;2022-12-29T00:12:37;95911.63;;;11.19;44.32
46574;BME280;32299;53.366;-1.544;2022-12-29T00:15:06;95908.54;;;11.23;44.26
46574;BME280;32299;53.366;-1.544;2022-12-29T00:17:33;95923.09;;;11.29;44.02
46574;BME280;32299;53.366;-1.544;2022-12-29T00:20:00;95911.17;;;11.26;44.03
46574;BME280;32299;53.366;-1.544;2022-12-29T00:22:27;95900.94;;;11.21;44.11
46574;BME280;32299;53.366;-1.544;2022-12-29T00:24:54;95892.05;;;11.21;44.32
46574;BME280;32299;53.366;-1.544;2022-12-29T00:27:21;95887.97;;;11.25;44.27
46574;BME280;32299;53.366;-1.544;2022-12-29T00:29:48;95898.26;;;11.29;43.92
46574;BME280;32299;53.366;-1.544;2022-12-29T00:32:15;95879.52;;;11.30;43.98
46574;BME280;32299;53.366;-1.544;2022-12-29T00:34:42;95882.70;;;10.99;43.95
46574;BME280;32299;53.366;-1.544;2022-12-29T00:37:09;95879.99;;;11.42;43.74
46574;BME280;32299;53.366;-1.544;2022-12-29T00:39:36;95871.42;;;11.19;43.93
46574;BME280;32299;53.366;-1.544;2022-12-29T00:42:03;95878.62;;;11.50;43.96
46574;BME280;32299;53.366;-1.544;2022-12-29T00:44:30;95860.27;;;11.21;43.97
46574;BME280;32299;53.366;-1.544;2022-12-29T00:46:57;95860.25;;;11.17;44.04
46574;BME280;32299;53.366;-1.544;2022-12-29T00:49:25;95871.28;;;11.09;44.13
46574;BME280;32299;53.366;-1.544;2022-12-29T00:51:53;95867.66;;;11.11;43.94
46574;BME280;32299;53.366;-1.544;2022-12-29T00:54:21;95867.71;;;11.07;43.89
46574;BME280;32299;53.366;-1.544;2022-12-29T00:56:49;95863.41;;;11.00;44.16
46574;BME280;32299;53.366;-1.544;2022-12-29T00:59:17;95863.33;;;11.03;44.03
46574;BME280;32299;53.366;-1.544;2022-12-29T01:01:45;95855.59;;;11.21;43.77
46574;BME280;32299;53.366;-1.544;2022-12-29T01:04:13;95863.80;;;11.04;44.05
46574;BME280;32299;53.366;-1.544;2022-12-29T01:06:40;95862.67;;;11.04;43.99
46574;BME280;32299;53.366;-1.544;2022-12-29T01:09:08;95864.03;;;10.97;43.98
46574;BME280;32299;53.366;-1.544;2022-12-29T01:11:36;95853.80;;;11.26;44.16
46574;BME280;32299;53.366;-1.544;2022-12-29T01:14:04;95844.50;;;10.80;44.12
46574;BME280;32299;53.366;-1.544;2022-12-29T01:16:32;95845.98;;;11.07;43.83
46574;BME280;32299;53.366;-1.544;2022-12-29T01:18:59;95862.63;;;10.97;44.27
46574;BME280;32299;53.366;-1.544;2022-12-29T01:21:27;95870.77;;;11.10;44.00
46574;BME280;32299;53.366;-1.544;2022-12-29T01:23:54;95871.10;;;11.00;44.10
46574;BME280;32299;53.366;-1.544;2022-12-29T01:26:21;95858.96;;;11.13;43.94
46574;BME280;32299;53.366;-1.544;2022-12-29T01:28:48;95860.84;;;11.04;43.94
46574;BME280;32299;53.366;-1.544;2022-12-29T01:31:16;95871.12;;;11.06;43.94
46574;BME280;32299;53.366;-1.544;2022-12-29T01:33:43;95870.90;;;11.17;43.93
46574;BME280;32299;53.366;-1.544;2022-12-29T01:36:14;95872.92;;;10.84;44.28
46574;BME280;32299;53.366;-1.544;2022-12-29T01:38:43;95875.57;;;10.68;44.11
46574;BME280;32299;53.366;-1.544;2022-12-29T01:41:12;95882.56;;;10.98;43.78
46574;BME280;32299;53.366;-1.544;2022-12-29T01:43:43;95896.47;;;10.96;43.84
46574;BME280;32299;53.366;-1.544;2022-12-29T01:46:18;95895.97;;;10.94;43.90
46574;BME280;32299;53.366;-1.544;2022-12-29T01:48:46;95897.66;;;10.93;44.00
46574;BME280;32299;53.366;-1.544;2022-12-29T01:51:15;95903.71;;;11.07;43.83
46574;BME280;32299;53.366;-1.544;2022-12-29T01:53:43;95913.31;;;11.08;43.72
46574;BME280;32299;53.366;-1.544;2022-12-29T01:56:12;95916.72;;;11.14;43.85
46574;BME280;32299;53.366;-1.544;2022-12-29T01:58:46;95927.82;;;11.11;43.88
46574;BME280;32299;53.366;-1.544;2022-12-29T02:01:21;95941.64;;;11.06;43.90
46574;BME280;32299;53.366;-1.544;2022-12-29T02:03:48;95947.23;;;10.86;44.13
46574;BME280;32299;53.366;-1.544;2022-12-29T02:06:21;95959.23;;;11.07;44.12
46574;BME280;32299;53.366;-1.544;2022-12-29T02:08:50;95962.87;;;11.10;44.37
46574;BME280;32299;53.366;-1.544;2022-12-29T02:11:19;95982.11;;;11.15;44.41
46574;BME280;32299;53.366;-1.544;2022-12-29T02:13:48;95988.78;;;10.98;44.42
46574;BME280;32299;53.366;-1.544;2022-12-29T02:16:28;96006.16;;;11.49;44.21
46574;BME280;32299;53.366;-1.544;2022-12-29T02:19:10;96039.53;;;11.05;44.70
46574;BME280;32299;53.366;-1.544;2022-12-29T02:21:53;96031.68;;;10.55;44.52
46574;BME280;32299;53.366;-1.544;2022-12-29T02:24:44;96044.37;;;11.02;43.96
46574;BME280;32299;53.366;-1.544;2022-12-29T02:27:37;96048.72;;;10.67;44.12
46574;BME280;32299;53.366;-1.544;2022-12-29T02:30:15;96035.71;;;10.75;43.54
46574;BME280;32299;53.366;-1.544;2022-12-29T02:32:52;96036.77;;;10.73;43.80
46574;BME280;32299;53.366;-1.544;2022-12-29T02:35:29;96038.79;;;10.66;43.64
46574;BME280;32299;53.366;-1.544;2022-12-29T02:38:08;96046.29;;;10.87;43.57
46574;BME280;32299;53.366;-1.544;2022-12-29T02:40:43;96043.38;;;10.72;43.76
46574;BME280;32299;53.366;-1.544;2022-12-29T02:43:24;96036.27;;;10.74;43.62
46574;BME280;32299;53.366;-1.544;2022-12-29T02:45:55;96038.68;;;10.32;43.80
46574;BME280;32299;53.366;-1.544;2022-12-29T02:48:28;96046.44;;;10.38;43.76
46574;BME280;32299;53.366;-1.544;2022-12-29T02:51:00;96030.93;;;10.15;44.01
46574;BME280;32299;53.366;-1.544;2022-12-29T02:53:31;96030.76;;;10.23;43.86
46574;BME280;32299;53.366;-1.544;2022-12-29T02:55:59;96032.97;;;10.19;43.86
46574;BME280;32299;53.366;-1.544;2022-12-29T02:58:27;96032.79;;;10.18;43.82
46574;BME280;32299;53.366;-1.544;2022-12-29T03:01:05;96037.30;;;10.05;43.77
46574;BME280;32299;53.366;-1.544;2022-12-29T03:03:47;96045.11;;;10.23;43.85
46574;BME280;32299;53.366;-1.544;2022-12-29T03:06:27;96033.32;;;10.10;44.12
46574;BME280;32299;53.366;-1.544;2022-12-29T03:09:05;96045.83;;;10.11;44.21
46574;BME280;32299;53.366;-1.544;2022-12-29T03:11:43;96043.03;;;10.02;44.42
46574;BME280;32299;53.366;-1.544;2022-12-29T03:14:17;96041.24;;;10.06;44.42
46574;BME280;32299;53.366;-1.544;2022-12-29T03:16:52;96036.81;;;10.03;44.52
46574;BME280;32299;53.366;-1.544;2022-12-29T03:19:23;96039.00;;;9.77;44.57
46574;BME280;32299;53.366;-1.544;2022-12-29T03:21:55;96042.33;;;10.04;44.62
46574;BME280;32299;53.366;-1.544;2022-12-29T03:24:27;96049.71;;;9.96;44.81
46574;BME280;32299;53.366;-1.544;2022-12-29T03:26:56;96064.16;;;10.06;44.71
46574;BME280;32299;53.366;-1.544;2022-12-29T03:29:27;96057.05;;;10.06;44.70
46574;BME280;32299;53.366;-1.544;2022-12-29T03:31:55;96055.66;;;9.80;44.69
46574;BME280;32299;53.366;-1.544;2022-12-29T03:34:24;96059.08;;;9.69;44.93
46574;BME280;32299;53.366;-1.544;2022-12-29T03:36:54;96067.00;;;9.99;44.93
46574;BME280;32299;53.366;-1.544;2022-12-29T03:39:23;96071.28;;;9.97;44.93
46574;BME280;32299;53.366;-1.544;2022-12-29T03:41:56;96078.40;;;10.01;45.01
46574;BME280;32299;53.366;-1.544;2022-12-29T03:44:32;96080.16;;;9.47;45.14
46574;BME280;32299;53.366;-1.544;2022-12-29T03:46:59;96085.60;;;9.66;45.26
46574;BME280;32299;53.366;-1.544;2022-12-29T03:49:26;96080.77;;;9.47;45.25
46574;BME280;32299;53.366;-1.544;2022-12-29T03:51:54;96084.28;;;9.95;45.25
46574;BME280;32299;53.366;-1.544;2022-12-29T03:54:21;96082.63;;;9.96;45.16
46574;BME280;32299;53.366;-1.544;2022-12-29T03:56:48;96078.11;;;9.86;45.29
46574;BME280;32299;53.366;-1.544;2022-12-29T03:59:15;96096.37;;;9.80;44.90
46574;BME280;32299;53.366;-1.544;2022-12-29T04:01:42;96106.86;;;9.87;45.26
46574;BME280;32299;53.366;-1.544;2022-12-29T04:04:09;96112.02;;;9.95;45.01
46574;BME280;32299;53.366;-1.544;2022-12-29T04:06:36;96129.79;;;9.79;45.49
46574;BME280;32299;53.366;-1.544;2022-12-29T04:09:03;96122.30;;;9.29;45.43
46574;BME280;32299;53.366;-1.544;2022-12-29T04:11:30;96132.96;;;9.81;45.40
46574;BME280;32299;53.366;-1.544;2022-12-29T04:13:57;96135.45;;;9.86;45.44
46574;BME280;32299;53.366;-1.544;2022-12-29T04:16:24;96143.75;;;9.79;45.50
46574;BME280;32299;53.366;-1.544;2022-12-29T04:18:51;96143.73;;;9.80;45.59
46574;BME280;32299;53.366;-1.544;2022-12-29T04:21:18;96150.06;;;9.85;45.48
46574;BME280;32299;53.366;-1.544;2022-12-29T04:23:45;96162.65;;;9.95;45.30
46574;BME280;32299;53.366;-1.544;2022-12-29T04:26:12;96172.04;;;9.70;45.27
46574;BME280;32299;53.366;-1.544;2022-12-29T04:28:39;96179.55;;;9.97;45.35
46574;BME280;32299;53.366;-1.544;2022-12-29T04:31:07;96189.88;;;9.79;45.63
46574;BME280;32299;53.366;-1.544;2022-12-29T04:33:34;96192.92;;;9.78;44.98
46574;BME280;32299;53.366;-1.544;2022-12-29T04:36:02;96203.46;;;9.67;45.54
46574;BME280;32299;53.366;-1.544;2022-12-29T04:38:29;96222.46;;;10.01;45.47
46574;BME280;32299;53.366;-1.544;2022-12-29T04:40:59;96219.07;;;10.05;45.33
46574;BME280;32299;53.366;-1.544;2022-12-29T04:43:26;96215.30;;;10.03;45.27
46574;BME280;32299;53.366;-1.544;2022-12-29T04:45:54;96224.70;;;9.73;45.44
46574;BME280;32299;53.366;-1.544;2022-12-29T04:48:21;96223.75;;;10.09;45.30
46574;BME280;32299;53.366;-1.544;2022-12-29T04:50:49;96220.03;;;10.12;45.14
46574;BME280;32299;53.366;-1.544;2022-12-29T04:53:17;96231.26;;;9.99;45.41
46574;BME280;32299;53.366;-1.544;2022-12-29T04:55:48;96238.60;;;9.78;45.42
46574;BME280;32299;53.366;-1.544;2022-12-29T04:58:16;96244.51;;;10.04;45.32
46574;BME280;32299;53.366;-1.544;2022-12-29T05:00:43;96250.61;;;9.90;45.17
46574;BME280;32299;53.366;-1.544;2022-12-29T05:03:10;96250.24;;;10.16;45.09
46574;BME280;32299;53.366;-1.544;2022-12-29T05:05:37;96262.44;;;9.98;45.30
46574;BME280;32299;53.366;-1.544;2022-12-29T05:08:04;96262.76;;;9.79;45.19
46574;BME280;32299;53.366;-1.544;2022-12-29T05:10:32;96275.20;;;9.77;45.06
46574;BME280;32299;53.366;-1.544;2022-12-29T05:12:59;96278.19;;;10.01;45.27
46574;BME280;32299;53.366;-1.544;2022-12-29T05:15:26;96285.02;;;10.04;45.27
46574;BME280;32299;53.366;-1.544;2022-12-29T05:17:53;96283.11;;;9.82;45.07
46574;BME280;32299;53.366;-1.544;2022-12-29T05:20:20;96283.55;;;9.76;45.16
46574;BME280;32299;53.366;-1.544;2022-12-29T05:22:47;96293.44;;;10.06;44.93
46574;BME280;32299;53.366;-1.544;2022-12-29T05:25:14;96297.28;;;9.55;45.03
46574;BME280;32299;53.366;-1.544;2022-12-29T05:27:41;96301.83;;;10.06;44.90
46574;BME280;32299;53.366;-1.544;2022-12-29T05:30:09;96315.57;;;9.98;45.00
46574;BME280;32299;53.366;-1.544;2022-12-29T05:32:36;96321.93;;;9.57;44.97
46574;BME280;32299;53.366;-1.544;2022-12-29T05:35:04;96318.55;;;9.97;44.90
46574;BME280;32299;53.366;-1.544;2022-12-29T05:37:31;96321.96;;;10.03;44.83
46574;BME280;32299;53.366;-1.544;2022-12-29T05:39:59;96340.51;;;10.11;44.84
46574;BME280;32299;53.366;-1.544;2022-12-29T05:42:26;96334.99;;;10.04;44.90
46574;BME280;32299;53.366;-1.544;2022-12-29T05:44:53;96328.32;;;9.70;44.99
46574;BME280;32299;53.366;-1.544;2022-12-29T05:47:20;96350.59;;;9.78;44.77
46574;BME280;32299;53.366;-1.544;2022-12-29T05:49:48;96350.27;;;10.07;44.64
46574;BME280;32299;53.366;-1.544;2022-12-29T05:52:15;96357.02;;;10.02;44.91
46574;BME280;32299;53.366;-1.544;2022-12-29T05:54:42;96359.47;;;10.04;44.91
46574;BME280;32299;53.366;-1.544;2022-12-29T05:57:09;96358.60;;;9.78;44.81
46574;BME280;32299;53.366;-1.544;2022-12-29T05:59:36;96368.02;;;10.07;44.90
46574;BME280;32299;53.366;-1.544;2022-12-29T06:02:03;96363.12;;;10.05;44.83
46574;BME280;32299;53.366;-1.544;2022-12-29T06:04:30;96381.92;;;9.79;44.74
46574;BME280;32299;53.366;-1.544;2022-12-29T06:06:57;96381.50;;;9.83;44.65
46574;BME280;32299;53.366;-1.544;2022-12-29T06:09:24;96384.72;;;10.09;44.46
46574;BME280;32299;53.366;-1.544;2022-12-29T06:11:52;96384.97;;;9.85;44.39
46574;BME280;32299;53.366;-1.544;2022-12-29T06:14:19;96383.32;;;9.80;44.64
46574;BME280;32299;53.366;-1.544;2022-12-29T06:16:46;96379.57;;;10.14;44.53
46574;BME280;32299;53.366;-1.544;2022-12-29T06:19:13;96380.27;;;9.83;44.58
46574;BME280;32299;53.366;-1.544;2022-12-29T06:21:40;96389.94;;;9.97;44.54
46574;BME280;32299;53.366;-1.544;2022-12-29T06:24:07;96396.56;;;10.07;44.30
46574;BME280;32299;53.366;-1.544;2022-12-29T06:26:34;96396.36;;;10.00;44.47
46574;BME280;32299;53.366;-1.544;2022-12-29T06:29:01;96397.78;;;10.02;44.38
46574;BME280;32299;53.366;-1.544;2022-12-29T06:31:28;96401.53;;;9.70;44.45
46574;BME280;32299;53.366;-1.544;2022-12-29T06:33:55;96403.98;;;9.74;44.21
46574;BME280;32299;53.366;-1.544;2022-12-29T06:36:22;96403.38;;;10.01;44.30
46574;BME280;32299;53.366;-1.544;2022-12-29T06:38:49;96407.65;;;9.69;44.38
46574;BME280;32299;53.366;-1.544;2022-12-29T06:41:16;96412.46;;;10.06;44.09
46574;BME280;32299;53.366;-1.544;2022-12-29T06:43:43;96413.97;;;10.00;44.33
46574;BME280;32299;53.366;-1.544;2022-12-29T06:46:10;96414.54;;;9.80;44.60
46574;BME280;32299;53.366;-1.544;2022-12-29T06:48:37;96410.68;;;9.91;44.46
46574;BME280;32299;53.366;-1.544;2022-12-29T06:51:04;96411.66;;;9.87;44.41
46574;BME280;32299;53.366;-1.544;2022-12-29T06:53:31;96405.76;;;9.94;44.47
46574;BME280;32299;53.366;-1.544;2022-12-29T06:55:58;96416.23;;;9.61;44.43
46574;BME280;32299;53.366;-1.544;2022-12-29T06:58:25;96421.16;;;9.93;44.28
46574;BME280;32299;53.366;-1.544;2022-12-29T07:00:52;96426.70;;;9.83;44.39
46574;BME280;32299;53.366;-1.544;2022-12-29T07:03:19;96424.37;;;9.50;44.53
46574;BME280;32299;53.366;-1.544;2022-12-29T07:05:46;96424.68;;;9.76;44.53
46574;BME280;32299;53.366;-1.544;2022-12-29T07:08:13;96429.29;;;9.74;44.53
46574;BME280;32299;53.366;-1.544;2022-12-29T07:10:41;96432.16;;;9.44;44.59
46574;BME280;32299;53.366;-1.544;2022-12-29T07:13:08;96425.56;;;9.48;44.40
46574;BME280;32299;53.366;-1.544;2022-12-29T07:15:36;96435.62;;;9.41;44.65
46574;BME280;32299;53.366;-1.544;2022-12-29T07:18:03;96440.75;;;9.73;44.58
46574;BME280;32299;53.366;-1.544;2022-12-29T07:20:31;96441.51;;;9.72;44.51
46574;BME280;32299;53.366;-1.544;2022-12-29T07:22:59;96447.51;;;9.73;44.34
46574;BME280;32299;53.366;-1.544;2022-12-29T07:25:26;96459.02;;;9.74;44.72
46574;BME280;32299;53.366;-1.544;2022-12-29T07:27:53;96457.03;;;9.44;44.92
46574;BME280;32299;53.366;-1.544;2022-12-29T07:30:20;96461.18;;;9.53;44.82
46574;BME280;32299;53.366;-1.544;2022-12-29T07:32:47;96464.28;;;9.58;44.69
46574;BME280;32299;53.366;-1.544;2022-12-29T07:35:15;96463.99;;;9.58;44.79
46574;BME280;32299;53.366;-1.544;2022-12-29T07:37:48;96471.81;;;9.82;44.51
46574;BME280;32299;53.366;-1.544;2022-12-29T07:40:15;96466.89;;;9.53;44.70
46574;BME280;32299;53.366;-1.544;2022-12-29T07:42:41;96477.72;;;9.79;44.60
46574;BME280;32299;53.366;-1.544;2022-12-29T07:45:09;96474.81;;;9.50;44.76
46574;BME280;32299;53.366;-1.544;2022-12-29T07:47:36;96477.54;;;9.70;44.76
46574;BME280;32299;53.366;-1.544;2022-12-29T07:50:04;96482.99;;;9.43;44.91
46574;BME280;32299;53.366;-1.544;2022-12-29T07:52:32;96496.18;;;9.44;44.89
46574;BME280;32299;53.366;-1.544;2022-12-29T07:54:59;96496.07;;;9.48;44.85
46574;BME280;32299;53.366;-1.544;2022-12-29T07:57:26;96501.62;;;9.51;44.71
46574;BME280;32299;53.366;-1.544;2022-12-29T07:59:53;96515.63;;;9.38;45.04
46574;BME280;32299;53.366;-1.544;2022-12-29T08:02:20;96509.44;;;9.47;44.94
46574;BME280;32299;53.366;-1.544;2022-12-29T08:04:47;96508.00;;;9.60;44.99
46574;BME280;32299;53.366;-1.544;2022-12-29T08:07:19;96500.12;;;9.53;45.12
46574;BME280;32299;53.366;-1.544;2022-12-29T08:09:46;96497.05;;;9.59;44.97
46574;BME280;32299;53.366;-1.544;2022-12-29T08:12:14;96512.11;;;9.31;45.10
46574;BME280;32299;53.366;-1.544;2022-12-29T08:14:41;96514.55;;;9.32;45.03
46574;BME280;32299;53.366;-1.544;2022-12-29T08:17:08;96515.97;;;9.25;45.10
46574;BME280;32299;53.366;-1.544;2022-12-29T08:19:35;96519.30;;;9.38;44.76
46574;BME280;32299;53.366;-1.544;2022-12-29T08:22:02;96534.37;;;9.56;44.84
46574;BME280;32299;53.366;-1.544;2022-12-29T08:24:29;96532.41;;;9.36;44.50
46574;BME280;32299;53.366;-1.544;2022-12-29T08:26:56;96531.63;;;9.58;44.68
46574;BME280;32299;53.366;-1.544;2022-12-29T08:29:23;96546.39;;;9.59;44.66
46574;BME280;32299;53.366;-1.544;2022-12-29T08:31:50;96554.27;;;9.33;44.62
46574;BME280;32299;53.366;-1.544;2022-12-29T08:34:17;96566.38;;;9.31;44.57
46574;BME280;32299;53.366;-1.544;2022-12-29T08:36:50;96570.55;;;9.39;44.44
46574;BME280;32299;53.366;-1.544;2022-12-29T08:39:17;96573.08;;;9.31;44.48
46574;BME280;32299;53.366;-1.544;2022-12-29T08:41:44;96560.25;;;9.82;44.65
46574;BME280;32299;53.366;-1.544;2022-12-29T08:44:11;96570.83;;;9.40;44.56
46574;BME280;32299;53.366;-1.544;2022-12-29T08:46:38;96577.46;;;9.32;44.48
46574;BME280;32299;53.366;-1.544;2022-12-29T08:49:05;96589.53;;;9.51;44.62
46574;BME280;32299;53.366;-1.544;2022-12-29T08:51:32;96598.09;;;9.37;44.43
46574;BME280;32299;53.366;-1.544;2022-12-29T08:54:00;96604.88;;;9.55;44.59
46574;BME280;32299;53.366;-1.544;2022-12-29T08:56:27;96611.37;;;9.53;44.48
46574;BME280;32299;53.366;-1.544;2022-12-29T08:58:55;96620.75;;;9.81;44.47
46574;BME280;32299;53.366;-1.544;2022-12-29T09:01:23;96623.30;;;9.27;44.70
46574;BME280;32299;53.366;-1.544;2022-12-29T09:03:50;96627.01;;;9.22;44.77
46574;BME280;32299;53.366;-1.544;2022-12-29T09:06:17;96624.19;;;9.30;44.49
46574;BME280;32299;53.366;-1.544;2022-12-29T09:08:44;96628.37;;;9.32;44.55
46574;BME280;32299;53.366;-1.544;2022-12-29T09:11:16;96633.12;;;9.30;44.83
46574;BME280;32299;53.366;-1.544;2022-12-29T09:13:43;96642.24;;;9.34;44.89
46574;BME280;32299;53.366;-1.544;2022-12-29T09:16:11;96633.70;;;9.72;44.59
46574;BME280;32299;53.366;-1.544;2022-12-29T09:18:38;96639.82;;;9.54;44.79
46574;BME280;32299;53.366;-1.544;2022-12-29T09:21:06;96644.14;;;9.44;45.22
46574;BME280;32299;53.366;-1.544;2022-12-29T09:23:35;96637.62;;;9.27;44.96
46574;BME280;32299;53.366;-1.544;2022-12-29T09:26:02;96640.49;;;9.53;45.13
46574;BME280;32299;53.366;-1.544;2022-12-29T09:28:30;96634.95;;;9.75;44.81
46574;BME280;32299;53.366;-1.544;2022-12-29T09:30:57;96630.25;;;9.68;45.33
46574;BME280;32299;53.366;-1.544;2022-12-29T09:33:25;96651.08;;;9.72;45.29
46574;BME280;32299;53.366;-1.544;2022-12-29T09:35:54;96648.22;;;9.50;45.80
46574;BME280;32299;53.366;-1.544;2022-12-29T09:38:22;96656.24;;;9.91;44.96
46574;BME280;32299;53.366;-1.544;2022-12-29T09:40:52;96655.44;;;10.01;45.44
46574;BME280;32299;53.366;-1.544;2022-12-29T09:43:49;96654.39;;;9.79;45.11
46574;BME280;32299;53.366;-1.544;2022-12-29T09:46:24;96658.43;;;9.98;45.55
46574;BME280;32299;53.366;-1.544;2022-12-29T09:48:57;96670.31;;;9.90;45.47
46574;BME280;32299;53.366;-1.544;2022-12-29T09:51:27;96679.87;;;10.05;44.27
46574;BME280;32299;53.366;-1.544;2022-12-29T09:53:58;96695.17;;;9.98;44.96
46574;BME280;32299;53.366;-1.544;2022-12-29T09:56:28;96694.48;;;9.84;44.88
46574;BME280;32299;53.366;-1.544;2022-12-29T09:58:59;96698.96;;;10.18;44.27
46574;BME280;32299;53.366;-1.544;2022-12-29T10:01:31;96699.92;;;10.21;43.41
46574;BME280;32299;53.366;-1.544;2022-12-29T10:04:00;96690.53;;;10.10;43.79
46574;BME280;32299;53.366;-1.544;2022-12-29T10:06:35;96702.23;;;10.37;44.14
46574;BME280;32299;53.366;-1.544;2022-12-29T10:09:10;96707.70;;;10.27;43.98
46574;BME280;32299;53.366;-1.544;2022-12-29T10:11:54;96709.16;;;10.93;43.34
46574;BME280;32299;53.366;-1.544;2022-12-29T10:14:36;96714.79;;;10.52;44.10
46574;BME280;32299;53.366;-1.544;2022-12-29T10:17:13;96722.72;;;10.39;43.27
46574;BME280;32299;53.366;-1.544;2022-12-29T10:20:00;96729.56;;;10.39;43.42
46574;BME280;32299;53.366;-1.544;2022-12-29T10:22:40;96724.92;;;10.55;43.04
46574;BME280;32299;53.366;-1.544;2022-12-29T10:25:15;96745.21;;;10.48;42.83
46574;BME280;32299;53.366;-1.544;2022-12-29T10:27:43;96740.03;;;10.73;43.10
46574;BME280;32299;53.366;-1.544;2022-12-29T10:30:14;96740.78;;;10.74;43.03
46574;BME280;32299;53.366;-1.544;2022-12-29T10:32:46;96732.68;;;10.80;42.69
46574;BME280;32299;53.366;-1.544;2022-12-29T10:35:20;96737.31;;;10.95;42.23
46574;BME280;32299;53.366;-1.544;2022-12-29T10:37:52;96733.32;;;10.99;42.69
46574;BME280;32299;53.366;-1.544;2022-12-29T10:40:27;96736.99;;;11.15;42.18
46574;BME280;32299;53.366;-1.544;2022-12-29T10:42:57;96741.84;;;11.16;42.41
46574;BME280;32299;53.366;-1.544;2022-12-29T10:45:29;96749.18;;;11.45;42.08
46574;BME280;32299;53.366;-1.544;2022-12-29T10:48:01;96738.99;;;11.29;42.17
46574;BME280;32299;53.366;-1.544;2022-12-29T10:50:30;96747.33;;;10.86;42.16
46574;BME280;32299;53.366;-1.544;2022-12-29T10:52:59;96750.33;;;11.12;41.52
46574;BME280;32299;53.366;-1.544;2022-12-29T10:55:30;96751.29;;;11.31;41.54
46574;BME280;32299;53.366;-1.544;2022-12-29T10:58:02;96755.11;;;11.49;40.95
46574;BME280;32299;53.366;-1.544;2022-12-29T11:00:32;96762.89;;;11.30;41.35
46574;BME280;32299;53.366;-1.544;2022-12-29T11:03:11;96763.54;;;11.17;41.23
46574;BME280;32299;53.366;-1.544;2022-12-29T11:05:49;96769.41;;;11.42;40.91
46574;BME280;32299;53.366;-1.544;2022-12-29T11:08:21;96770.42;;;11.35;41.03
46574;BME280;32299;53.366;-1.544;2022-12-29T11:10:59;96769.99;;;11.36;41.31
46574;BME280;32299;53.366;-1.544;2022-12-29T11:13:28;96783.47;;;11.36;41.02
46574;BME280;32299;53.366;-1.544;2022-12-29T11:15:56;96794.99;;;11.33;41.14
46574;BME280;32299;53.366;-1.544;2022-12-29T11:18:25;96811.02;;;11.44;40.52
46574;BME280;32299;53.366;-1.544;2022-12-29T11:20:54;96804.16;;;11.04;40.32
46574;BME280;32299;53.366;-1.544;2022-12-29T11:23:25;96799.66;;;11.04;40.80
46574;BME280;32299;53.366;-1.544;2022-12-29T11:26:11;96792.33;;;11.29;40.06
46574;BME280;32299;53.366;-1.544;2022-12-29T11:28:41;96788.45;;;11.20;40.14
46574;BME280;32299;53.366;-1.544;2022-12-29T11:31:09;96793.85;;;11.10;40.31
46574;BME280;32299;53.366;-1.544;2022-12-29T11:33:38;96794.00;;;10.83;40.13
46574;BME280;32299;53.366;-1.544;2022-12-29T11:36:08;96796.45;;;11.15;39.95
46574;BME280;32299;53.366;-1.544;2022-12-29T11:38:40;96797.92;;;11.01;40.23
46574;BME280;32299;53.366;-1.544;2022-12-29T11:41:12;96795.75;;;10.83;39.87
46574;BME280;32299;53.366;-1.544;2022-12-29T11:43:42;96803.28;;;10.81;40.13
46574;BME280;32299;53.366;-1.544;2022-12-29T11:46:16;96796.93;;;10.99;39.91
46574;BME280;32299;53.366;-1.544;2022-12-29T11:48:43;96803.32;;;10.79;40.45
46574;BME280;32299;53.366;-1.544;2022-12-29T11:51:11;96794.03;;;10.75;40.98
46574;BME280;32299;53.366;-1.544;2022-12-29T11:53:43;96800.97;;;11.20;41.15
46574;BME280;32299;53.366;-1.544;2022-12-29T11:56:14;96799.92;;;10.83;41.37
46574;BME280;32299;53.366;-1.544;2022-12-29T11:58:42;96802.13;;;10.88;41.85
46574;BME280;32299;53.366;-1.544;2022-12-29T12:01:15;96806.06;;;11.03;41.31
46574;BME280;32299;53.366;-1.544;2022-12-29T12:03:48;96812.68;;;11.18;41.66
46574;BME280;32299;53.366;-1.544;2022-12-29T12:06:20;96800.33;;;11.26;41.27
46574;BME280;32299;53.366;-1.544;2022-12-29T12:08:54;96801.94;;;11.33;41.50
46574;BME280;32299;53.366;-1.544;2022-12-29T12:11:26;96803.48;;;11.39;41.23
46574;BME280;32299;53.366;-1.544;2022-12-29T12:13:59;96801.33;;;11.44;40.95
46574;BME280;32299;53.366;-1.544;2022-12-29T12:16:31;96814.87;;;11.48;40.82
46574;BME280;32299;53.366;-1.544;2022-12-29T12:19:04;96816.40;;;11.25;39.97
46574;BME280;32299;53.366;-1.544;2022-12-29T12:21:40;96819.06;;;11.44;40.48
46574;BME280;32299;53.366;-1.544;2022-12-29T12:24:34;96830.33;;;10.92;40.58
46574;BME280;32299;53.366;-1.544;2022-12-29T12:27:11;96829.81;;;11.37;40.57
46574;BME280;32299;53.366;-1.544;2022-12-29T12:29:47;96830.00;;;10.92;40.55
46574;BME280;32299;53.366;-1.544;2022-12-29T12:32:22;96828.55;;;11.56;40.58
46574;BME280;32299;53.366;-1.544;2022-12-29T12:34:50;96826.33;;;11.05;40.54
46574;BME280;32299;53.366;-1.544;2022-12-29T12:38:02;96830.08;;;12.01;40.30
46574;BME280;32299;53.366;-1.544;2022-12-29T12:40:45;96831.89;;;11.45;40.53
46574;BME280;32299;53.366;-1.544;2022-12-29T12:43:35;96845.81;;;11.47;40.60
46574;BME280;32299;53.366;-1.544;2022-12-29T12:46:22;96830.21;;;11.18;40.55
46574;BME280;32299;53.366;-1.544;2022-12-29T12:49:50;96843.76;;;12.35;39.87
46574;BME280;32299;53.366;-1.544;2022-12-29T12:52:29;96837.87;;;11.02;39.67
46574;BME280;32299;53.366;-1.544;2022-12-29T12:55:13;96836.08;;;11.44;39.87
46574;BME280;32299;53.366;-1.544;2022-12-29T12:57:52;96829.16;;;11.10;39.51
46574;BME280;32299;53.366;-1.544;2022-12-29T13:00:23;96838.31;;;10.79;39.50
46574;BME280;32299;53.366;-1.544;2022-12-29T13:03:06;96835.88;;;11.24;39.53
46574;BME280;32299;53.366;-1.544;2022-12-29T13:05:49;96840.90;;;11.06;39.45
46574;BME280;32299;53.366;-1.544;2022-12-29T13:08:37;96854.25;;;10.83;39.74
46574;BME280;32299;53.366;-1.544;2022-12-29T13:11:17;96850.53;;;10.82;39.70